createdAt,value
2019-02-06T00:01:14.486Z,20.95
2019-02-06T00:06:31.334Z,17.60
2019-02-06T00:09:00.114Z,18.27
2019-02-06T00:11:28.907Z,17.27
2019-02-06T00:13:57.981Z,18.60
2019-02-06T00:16:26.755Z,22.87
2019-02-06T00:18:55.467Z,20.48
2019-02-06T00:21:24.140Z,17.62
2019-02-06T00:23:53.280Z,29.87
2019-02-06T00:26:22.004Z,22.13
2019-02-06T00:28:50.631Z,19.92
2019-02-06T00:31:19.383Z,18.52
2019-02-06T00:33:47.995Z,24.80
2019-02-06T00:36:16.633Z,20.32
2019-02-06T00:38:45.329Z,21.05
2019-02-06T00:41:13.968Z,23.98
2019-02-06T00:43:42.581Z,23.90
2019-02-06T00:46:11.204Z,25.60
2019-02-06T00:48:39.907Z,22.87
2019-02-06T00:51:08.529Z,21.73
2019-02-06T00:53:37.247Z,21.68
2019-02-06T00:56:07.613Z,18.85
2019-02-06T00:58:36.239Z,21.77
2019-02-06T01:01:45.131Z,20.23
2019-02-06T01:07:01.560Z,22.93
2019-02-06T01:09:30.245Z,24.32
2019-02-06T01:11:58.935Z,22.52
2019-02-06T01:14:29.326Z,22.13
2019-02-06T01:16:58.006Z,21.93
2019-02-06T01:19:26.736Z,20.70
2019-02-06T01:21:55.354Z,23.30
2019-02-06T01:24:23.978Z,19.27
2019-02-06T01:26:52.584Z,20.45
2019-02-06T01:29:21.266Z,21.05
2019-02-06T01:34:27.324Z,20.72
2019-02-06T01:36:56.065Z,21.80
2019-02-06T01:39:24.756Z,23.15
2019-02-06T01:41:53.461Z,19.80
2019-02-06T01:44:22.208Z,20.62
2019-02-06T01:46:52.584Z,24.80
2019-02-06T01:49:21.341Z,20.52
2019-02-06T01:51:49.930Z,23.57
2019-02-06T01:54:18.575Z,20.60
2019-02-06T01:56:47.248Z,21.30
2019-02-06T01:59:15.882Z,21.33
2019-02-06T02:01:46.227Z,22.30
2019-02-06T02:04:14.886Z,27.73
2019-02-06T02:06:43.633Z,22.37
2019-02-06T02:09:31.379Z,20.48
2019-02-06T02:12:00.104Z,26.40
2019-02-06T02:14:30.515Z,23.10
2019-02-06T04:34:19.765Z,29.63
2019-02-06T04:36:48.492Z,26.55
2019-02-06T04:39:17.762Z,25.65
2019-02-06T04:41:46.438Z,29.40
2019-02-06T04:44:15.134Z,26.17
2019-02-06T04:46:43.940Z,24.60
2019-02-06T04:49:12.579Z,27.73
2019-02-06T04:51:41.259Z,27.75
2019-02-06T04:54:09.969Z,30.85
2019-02-06T04:56:40.306Z,29.48
2019-02-06T04:59:09.104Z,30.23
2019-02-06T05:01:37.832Z,27.27
2019-02-06T05:04:06.783Z,25.82
2019-02-06T05:06:35.364Z,30.82
2019-02-06T05:12:13.914Z,25.60
2019-02-06T05:14:42.540Z,34.25
2019-02-06T05:17:30.397Z,26.52
2019-02-06T05:19:59.096Z,26.10
2019-02-06T05:22:27.762Z,25.37
2019-02-06T05:24:56.472Z,28.07
2019-02-06T05:27:25.120Z,31.42
2019-02-06T05:29:53.937Z,28.27
2019-02-06T05:32:24.313Z,28.65
2019-02-06T05:34:52.933Z,27.25
2019-02-06T05:40:03.815Z,29.02
2019-02-06T05:42:32.475Z,25.45
2019-02-06T05:45:01.197Z,27.30
2019-02-06T05:47:29.825Z,31.05
2019-02-06T05:49:58.463Z,31.68
2019-02-06T05:52:27.156Z,30.45
2019-02-06T05:54:55.784Z,26.45
2019-02-06T05:57:24.451Z,26.75
2019-02-06T05:59:53.077Z,27.50
2019-02-06T06:02:23.503Z,30.72
2019-02-06T06:04:52.225Z,27.20
2019-02-06T06:07:20.855Z,30.12
2019-02-06T06:09:49.592Z,26.95
2019-02-06T06:12:18.324Z,30.68
2019-02-06T06:14:47.018Z,26.37
2019-02-06T06:17:15.651Z,32.15
2019-02-06T06:19:44.452Z,29.82
2019-02-06T06:22:13.164Z,25.20
2019-02-06T06:24:41.789Z,28.67
2019-02-06T06:27:10.548Z,32.80
2019-02-06T06:29:39.160Z,25.97
2019-02-06T06:32:07.995Z,31.07
2019-02-06T06:34:36.701Z,27.82
2019-02-06T06:37:05.485Z,25.37
2019-02-06T06:39:34.148Z,28.57
2019-02-06T06:42:42.593Z,32.13
2019-02-06T06:45:13.221Z,28.98
2019-02-06T06:47:42.058Z,27.62
2019-02-06T06:50:13.044Z,27.40
2019-02-06T06:52:41.766Z,27.17
2019-02-06T06:58:24.852Z,29.55
2019-02-06T07:00:53.580Z,27.87
2019-02-06T07:03:22.224Z,27.82
2019-02-06T07:05:50.857Z,28.67
2019-02-06T07:08:19.610Z,29.63
2019-02-06T07:10:48.396Z,29.70
2019-02-06T07:13:17.041Z,35.10
2019-02-06T07:15:45.747Z,28.00
2019-02-06T07:18:14.507Z,30.62
2019-02-06T07:20:44.851Z,32.63
2019-02-06T07:23:34.014Z,31.15
2019-02-06T07:28:56.899Z,26.07
2019-02-06T07:31:26.078Z,29.05
2019-02-06T07:33:55.250Z,33.20
2019-02-06T07:36:24.309Z,28.15
2019-02-06T07:38:53.242Z,26.97
2019-02-06T07:41:22.056Z,35.85
2019-02-06T07:43:53.698Z,30.45
2019-02-06T07:46:22.542Z,28.87
2019-02-06T07:48:51.649Z,29.65
2019-02-06T07:51:20.375Z,35.23
2019-02-06T07:53:49.704Z,29.50
2019-02-06T07:59:07.027Z,31.52
2019-02-06T08:01:35.790Z,29.67
2019-02-06T08:04:04.818Z,30.10
2019-02-06T08:06:35.810Z,31.85
2019-02-06T08:09:09.082Z,32.33
2019-02-06T08:11:38.503Z,32.10
2019-02-06T08:14:07.482Z,32.17
2019-02-06T08:16:57.472Z,36.42
2019-02-06T08:19:26.819Z,38.25
2019-02-06T08:21:55.795Z,34.30
2019-02-06T08:24:25.207Z,34.18
2019-02-06T08:26:53.939Z,35.95
2019-02-06T08:29:22.803Z,31.60
2019-02-06T08:31:51.478Z,31.85
2019-02-06T08:34:20.291Z,39.05
2019-02-06T08:36:48.997Z,33.50
2019-02-06T08:39:17.666Z,37.15
2019-02-06T08:41:46.291Z,35.55
2019-02-06T08:44:14.948Z,35.15
2019-02-06T08:46:43.567Z,35.80
2019-02-06T08:49:12.300Z,32.85
2019-02-06T08:51:42.840Z,37.40
2019-02-06T08:54:12.332Z,37.33
2019-02-06T08:56:41.062Z,38.48
2019-02-06T08:59:09.850Z,37.65
2019-02-06T09:01:38.538Z,32.25
2019-02-06T09:04:26.395Z,48.63
2019-02-06T09:06:55.145Z,36.60
2019-02-06T09:09:23.834Z,38.55
2019-02-06T09:11:52.496Z,39.55
2019-02-06T09:14:21.153Z,37.35
2019-02-06T09:16:49.793Z,35.08
2019-02-06T09:19:20.185Z,41.55
2019-02-06T09:21:48.834Z,35.85
2019-02-06T09:24:17.481Z,36.80
2019-02-06T09:26:46.179Z,35.83
2019-02-06T09:29:14.806Z,34.05
2019-02-06T09:31:43.487Z,41.95
2019-02-06T09:34:13.830Z,43.10
2019-02-06T09:36:42.548Z,35.00
2019-02-06T09:39:12.151Z,40.70
2019-02-06T09:41:41.788Z,37.42
2019-02-06T09:44:10.433Z,35.38
2019-02-06T09:46:39.126Z,41.02
2019-02-06T09:49:07.740Z,42.13
2019-02-06T09:51:36.374Z,38.70
2019-02-06T09:54:05.077Z,48.80
2019-02-06T09:56:33.711Z,45.85
2019-02-06T09:59:02.409Z,36.90
2019-02-06T10:01:31.086Z,40.08
2019-02-06T10:03:59.702Z,38.63
2019-02-06T10:06:30.252Z,41.77
2019-02-06T10:08:58.854Z,44.00
2019-02-06T10:11:27.475Z,39.67
2019-02-06T10:13:56.153Z,46.50
2019-02-06T10:16:24.802Z,42.38
2019-02-06T10:18:53.513Z,35.75
2019-02-06T10:21:31.292Z,41.33
2019-02-06T10:23:59.943Z,39.75
2019-02-06T10:26:28.671Z,41.98
2019-02-06T10:28:57.350Z,40.20
2019-02-06T10:31:26.032Z,36.83
2019-02-06T10:33:54.662Z,39.13
2019-02-06T10:36:25.031Z,42.55
2019-02-06T10:38:53.674Z,38.02
2019-02-06T10:41:22.397Z,45.15
2019-02-06T10:43:51.015Z,39.40
2019-02-06T10:46:19.740Z,40.12
2019-02-06T10:48:48.436Z,40.28
2019-02-06T10:51:17.155Z,42.65
2019-02-06T10:53:45.917Z,39.23
2019-02-06T10:56:14.609Z,39.18
2019-02-06T10:58:43.355Z,41.58
2019-02-06T11:01:12.081Z,41.95
2019-02-06T11:03:40.825Z,46.73
2019-02-06T11:06:09.552Z,43.20
2019-02-06T11:08:39.914Z,41.30
2019-02-06T11:11:08.594Z,39.23
2019-02-06T11:13:37.304Z,43.35
2019-02-06T11:16:05.995Z,43.48
2019-02-06T11:18:34.700Z,40.52
2019-02-06T11:21:03.398Z,44.38
2019-02-06T11:23:32.180Z,45.05
2019-02-06T11:26:00.819Z,40.35
2019-02-06T11:28:29.588Z,41.37
2019-02-06T11:30:58.269Z,37.08
2019-02-06T11:33:27.065Z,49.33
2019-02-06T11:35:55.689Z,37.78
2019-02-06T11:38:24.439Z,38.02
2019-02-06T11:40:54.842Z,48.30
2019-02-06T11:43:23.552Z,45.05
2019-02-06T11:45:52.244Z,42.58
2019-02-06T11:48:20.945Z,38.75
2019-02-06T11:50:49.587Z,40.52
2019-02-06T11:53:37.523Z,44.77
2019-02-06T11:56:06.224Z,42.80
2019-02-06T11:58:34.869Z,46.58
2019-02-06T12:04:00.072Z,38.42
2019-02-06T12:06:28.689Z,44.13
2019-02-06T12:08:57.329Z,37.85
2019-02-06T12:11:25.944Z,41.10
2019-02-06T12:13:54.625Z,44.88
2019-02-06T12:16:23.495Z,42.88
2019-02-06T12:18:53.687Z,42.17
2019-02-06T12:21:22.316Z,38.73
2019-02-06T12:23:50.984Z,39.55
2019-02-06T12:26:19.623Z,39.27
2019-02-06T12:28:48.241Z,43.87
2019-02-06T12:31:16.856Z,41.02
2019-02-06T12:33:45.539Z,36.30
2019-02-06T12:36:15.880Z,41.70
2019-02-06T12:38:53.165Z,42.03
2019-02-06T12:41:15.212Z,39.48
2019-02-06T12:43:43.836Z,36.53
2019-02-06T12:46:12.483Z,42.70
2019-02-06T12:48:41.200Z,39.80
2019-02-06T12:51:09.834Z,36.55
2019-02-06T12:53:40.346Z,38.95
2019-02-06T12:56:09.039Z,39.18
2019-02-06T12:58:37.752Z,43.38
2019-02-06T13:01:06.652Z,36.20
2019-02-06T13:03:35.427Z,40.20
2019-02-06T13:06:04.422Z,32.13
2019-02-06T13:08:33.068Z,34.78
2019-02-06T13:11:01.804Z,32.38
2019-02-06T13:13:30.468Z,30.08
2019-02-06T13:15:59.171Z,33.85
2019-02-06T13:18:27.818Z,34.15
2019-02-06T13:20:56.466Z,33.20
2019-02-06T13:23:25.094Z,38.63
2019-02-06T13:25:55.444Z,39.08
2019-02-06T13:28:24.073Z,32.03
2019-02-06T13:30:52.852Z,36.23
2019-02-06T13:33:21.516Z,33.02
2019-02-06T13:35:50.192Z,36.85
2019-02-06T13:38:18.827Z,32.55
2019-02-06T13:40:47.553Z,37.13
2019-02-06T13:43:16.300Z,32.70
2019-02-06T13:45:46.605Z,34.05
2019-02-06T13:48:15.276Z,35.20
2019-02-06T13:50:44.044Z,34.40
2019-02-06T13:53:12.799Z,32.88
2019-02-06T13:55:41.495Z,29.80
2019-02-06T13:58:19.816Z,28.65
2019-02-06T14:00:41.088Z,27.40
2019-02-06T14:03:09.897Z,28.50
2019-02-06T14:06:18.308Z,33.70
2019-02-06T14:08:46.985Z,30.08
2019-02-06T14:11:15.670Z,30.55
2019-02-06T14:13:44.411Z,31.07
2019-02-06T14:16:13.176Z,32.63
2019-02-06T14:18:41.928Z,31.77
2019-02-06T14:21:10.582Z,28.15
2019-02-06T14:24:04.584Z,30.65
2019-02-06T14:27:11.704Z,31.82
2019-02-06T14:30:18.802Z,31.73
2019-02-06T14:33:09.366Z,32.23
2019-02-06T14:36:16.466Z,28.25
2019-02-06T14:39:23.589Z,32.10
2019-02-06T14:42:30.730Z,32.35
2019-02-06T14:45:23.606Z,33.48
2019-02-06T14:48:30.732Z,32.88
2019-02-06T14:51:21.854Z,29.45
2019-02-06T14:54:28.992Z,26.07
2019-02-06T14:57:06.185Z,30.70
2019-02-06T15:00:13.286Z,28.90
2019-02-06T15:03:20.389Z,31.00
2019-02-06T15:06:16.205Z,28.12
2019-02-06T15:09:23.328Z,27.60
2019-02-06T15:12:30.531Z,27.90
2019-02-06T15:15:37.811Z,31.27
2019-02-06T15:18:28.412Z,31.65
2019-02-06T15:21:35.523Z,26.87
2019-02-06T15:24:42.931Z,28.32
2019-02-06T15:27:50.025Z,27.87
2019-02-06T15:30:42.090Z,29.20
2019-02-06T15:33:49.207Z,28.77
2019-02-06T15:36:43.475Z,30.97
2019-02-06T15:39:50.611Z,32.45
2019-02-06T15:42:43.491Z,29.25
2019-02-06T15:45:50.227Z,33.75
2019-02-06T15:48:57.324Z,45.40
2019-02-06T15:52:05.137Z,37.50
2019-02-06T15:55:12.256Z,43.78
2019-02-06T15:58:19.343Z,38.63
2019-02-06T16:01:14.065Z,38.38
2019-02-06T16:04:40.212Z,37.88
2019-02-06T16:07:47.318Z,38.28
2019-02-06T16:10:54.464Z,35.98
2019-02-06T16:14:01.861Z,37.58
2019-02-06T16:17:08.995Z,42.43
2019-02-06T16:20:16.128Z,38.70
2019-02-06T16:23:23.218Z,35.70
2019-02-06T16:26:30.350Z,34.50
2019-02-06T16:29:37.474Z,34.48
2019-02-06T16:32:44.589Z,35.92
2019-02-06T16:35:51.702Z,36.35
2019-02-06T16:38:58.926Z,34.88
2019-02-06T16:42:06.055Z,35.52
2019-02-06T16:45:13.163Z,32.80
2019-02-06T16:48:20.313Z,39.35
2019-02-06T16:51:10.862Z,33.95
2019-02-06T16:54:05.411Z,36.73
2019-02-06T16:57:12.545Z,35.13
2019-02-06T17:00:13.759Z,36.88
2019-02-06T17:03:10.208Z,35.52
2019-02-06T17:05:44.819Z,34.90
2019-02-06T17:08:51.934Z,37.23
2019-02-06T17:12:04.437Z,37.23
2019-02-06T17:15:07.889Z,34.95
2019-02-06T17:18:15.034Z,31.52
2019-02-06T17:20:53.703Z,31.57
2019-02-06T17:23:49.060Z,32.20
2019-02-06T17:26:40.964Z,31.23
2019-02-06T17:29:49.811Z,35.23
2019-02-06T17:32:56.924Z,30.10
2019-02-06T17:35:52.557Z,33.35
2019-02-06T17:38:44.200Z,31.25
2019-02-06T17:41:51.306Z,30.35
2019-02-06T17:44:58.447Z,32.58
2019-02-06T17:48:06.010Z,34.03
2019-02-06T17:51:13.140Z,33.38
2019-02-06T17:54:04.496Z,31.50
2019-02-06T17:56:34.925Z,32.33
2019-02-06T17:59:03.644Z,31.33
2019-02-06T18:01:59.910Z,32.67
2019-02-06T18:04:31.717Z,32.73
2019-02-06T18:07:00.427Z,37.80
2019-02-06T18:09:29.112Z,28.47
2019-02-06T18:11:57.742Z,28.80
2019-02-06T18:17:42.890Z,31.23
2019-02-06T18:20:32.437Z,32.15
2019-02-06T18:23:06.641Z,31.23
2019-02-06T18:25:56.310Z,38.20
2019-02-06T18:28:25.504Z,32.08
2019-02-06T18:30:54.167Z,35.50
2019-02-06T18:34:02.666Z,31.65
2019-02-06T18:36:31.851Z,34.48
2019-02-06T18:39:01.406Z,35.08
2019-02-06T18:41:30.464Z,34.40
2019-02-06T18:43:59.529Z,32.10
2019-02-06T18:46:28.446Z,34.70
2019-02-06T18:51:53.372Z,32.63
2019-02-06T18:54:22.507Z,33.20
2019-02-06T18:56:51.389Z,38.17
2019-02-06T18:59:20.298Z,35.38
2019-02-06T19:01:49.246Z,36.08
2019-02-06T19:04:19.790Z,32.42
2019-02-06T19:06:48.818Z,37.83
2019-02-06T19:09:20.493Z,37.13
2019-02-06T19:11:49.458Z,37.17
2019-02-06T19:14:18.603Z,34.88
2019-02-06T19:16:47.629Z,37.83
2019-02-06T19:19:36.774Z,45.78
2019-02-06T19:22:05.697Z,46.28
2019-02-06T19:24:34.499Z,41.80
2019-02-06T19:27:05.422Z,39.70
2019-02-06T19:32:08.812Z,44.08
2019-02-06T19:34:37.656Z,43.78
2019-02-06T19:40:15.125Z,40.03
2019-02-06T19:42:43.929Z,39.23
2019-02-06T19:45:12.886Z,46.30
2019-02-06T19:47:41.735Z,44.45
2019-02-06T19:50:15.233Z,38.25
2019-02-06T19:52:44.052Z,50.10
2019-02-06T19:55:13.579Z,47.55
2019-02-06T19:58:01.547Z,42.20
2019-02-06T20:03:44.950Z,44.15
2019-02-06T20:06:33.092Z,46.80
2019-02-06T20:09:14.788Z,44.60
2019-02-06T20:11:43.844Z,43.85
2019-02-06T20:14:12.723Z,45.60
2019-02-06T20:16:41.835Z,41.77
2019-02-06T20:19:10.845Z,43.85
2019-02-06T20:22:01.938Z,38.55
2019-02-06T20:24:30.934Z,44.55
2019-02-06T20:26:59.896Z,40.58
2019-02-06T20:29:28.627Z,41.75
2019-02-06T20:32:35.834Z,40.80
2019-02-06T20:38:14.277Z,39.38
2019-02-06T20:40:43.186Z,38.30
2019-02-06T20:43:21.710Z,39.18
2019-02-06T20:45:42.804Z,34.65
2019-02-06T20:48:11.602Z,41.25
2019-02-06T20:51:04.117Z,37.17
2019-02-06T20:53:33.037Z,44.90
2019-02-06T20:56:01.857Z,39.03
2019-02-06T20:58:30.701Z,39.27
2019-02-06T21:00:59.493Z,41.92
2019-02-06T21:03:30.163Z,41.08
2019-02-06T21:05:59.057Z,42.25
2019-02-06T21:08:28.045Z,36.83
2019-02-06T21:14:05.663Z,44.58
2019-02-06T21:16:34.450Z,42.95
2019-02-06T21:21:58.406Z,41.53
2019-02-06T21:24:27.344Z,48.70
2019-02-06T21:26:58.338Z,47.90
2019-02-06T21:29:27.326Z,44.13
2019-02-06T21:31:56.079Z,48.68
2019-02-06T21:34:24.961Z,55.63
2019-02-06T21:36:53.909Z,51.40
2019-02-06T21:39:22.792Z,49.50
2019-02-06T21:41:51.751Z,52.67
2019-02-06T21:44:20.541Z,46.70
2019-02-06T21:46:49.545Z,47.83
2019-02-06T21:49:18.546Z,45.98
2019-02-06T21:52:10.945Z,49.97
2019-02-06T21:54:39.738Z,44.15
2019-02-06T21:57:08.476Z,41.35
2019-02-06T21:59:37.415Z,47.78
2019-02-06T22:05:06.758Z,45.38
2019-02-06T22:07:35.564Z,45.12
2019-02-06T22:10:46.133Z,49.70
2019-02-06T22:13:15.025Z,48.13
2019-02-06T22:15:44.009Z,39.50
2019-02-06T22:18:12.919Z,49.23
2019-02-06T22:20:41.749Z,49.08
2019-02-06T22:23:10.572Z,47.58
2019-02-06T22:26:00.071Z,50.08
2019-02-06T22:28:30.703Z,43.00
2019-02-06T22:31:20.147Z,47.33
2019-02-06T22:33:49.044Z,45.85
2019-02-06T22:36:17.714Z,48.55
2019-02-06T22:38:46.345Z,50.52
2019-02-06T22:41:15.018Z,50.38
2019-02-06T22:43:43.716Z,47.43
2019-02-06T22:46:12.436Z,44.48
2019-02-06T22:48:41.096Z,46.05
2019-02-06T22:51:09.749Z,51.13
2019-02-06T22:53:38.561Z,45.73
2019-02-06T22:56:07.426Z,47.15
2019-02-06T22:58:36.233Z,42.40
2019-02-06T23:01:43.686Z,44.75
2019-02-06T23:04:33.456Z,50.55
2019-02-06T23:07:03.488Z,45.23
2019-02-06T23:09:32.820Z,42.15
2019-02-06T23:12:01.688Z,43.70
2019-02-06T23:14:30.613Z,45.95
2019-02-06T23:17:20.874Z,48.58
2019-02-06T23:20:09.487Z,39.03
2019-02-06T23:22:38.394Z,47.05
2019-02-06T23:25:46.908Z,42.78
2019-02-06T23:31:01.040Z,47.08
2019-02-06T23:33:29.909Z,44.05
2019-02-06T23:35:58.907Z,41.92
2019-02-06T23:41:22.710Z,46.33
2019-02-06T23:47:07.544Z,41.13
2019-02-06T23:49:36.232Z,46.23
2019-02-06T23:52:27.460Z,51.25
2019-02-06T23:58:15.328Z,45.92
